Terminal Aerodrome Forecast
Issued by NWS

Home | Current Version | Previous Version | Text Only | Print | Product List | Glossary On
Versions: 1 2 3 4 5 6 7 8 9 10 11 12 13 14 15 16 17 18 19 20 21 22 23
194
FTUS43 KDLH 251742
TAFHYR
TAF
KHYR 251742Z 2518/2618 21008G16KT P6SM SCT060 BKN110
     FM252000 22010G20KT P6SM VCTS BKN060CB
     FM260100 23011KT P6SM SCT070=

USA.gov is the U.S. government's official web portal to all federal, state and local government web resources and services.